createdAt,value
2019-05-28T00:01:39.808Z,11.80
2019-05-28T00:04:14.096Z,11.80
2019-05-28T00:06:49.238Z,11.80
2019-05-28T00:09:23.543Z,11.80
2019-05-28T00:11:57.848Z,11.80
2019-05-28T00:14:35.267Z,11.80
2019-05-28T00:17:09.522Z,11.80
2019-05-28T00:19:56.315Z,11.80
2019-05-28T00:22:30.598Z,11.90
2019-05-28T00:25:07.168Z,11.90
2019-05-28T00:27:44.989Z,11.80
2019-05-28T00:30:21.218Z,11.80
2019-05-28T00:32:55.658Z,11.80
2019-05-28T00:35:31.871Z,11.80
2019-05-28T00:38:06.163Z,11.80
2019-05-28T00:40:40.518Z,11.80
2019-05-28T00:43:14.864Z,11.80
2019-05-28T00:45:49.106Z,11.80
2019-05-28T00:48:23.474Z,11.80
2019-05-28T00:51:03.749Z,11.80
2019-05-28T00:53:38.034Z,11.80
2019-05-28T00:56:12.758Z,11.80
2019-05-28T00:58:47.702Z,11.80
2019-05-28T01:01:22.001Z,11.80
2019-05-28T01:03:56.250Z,11.80
2019-05-28T01:06:32.421Z,11.70
2019-05-28T01:09:08.250Z,11.70
2019-05-28T01:11:42.534Z,11.70
2019-05-28T01:14:19.883Z,11.60
2019-05-28T01:16:54.242Z,11.60
2019-05-28T01:19:28.463Z,11.50
2019-05-28T01:22:13.674Z,11.50
2019-05-28T01:24:54.010Z,11.40
2019-05-28T01:27:28.190Z,11.40
2019-05-28T01:30:02.789Z,11.30
2019-05-28T01:32:47.899Z,11.30
2019-05-28T01:35:21.677Z,11.20
2019-05-28T01:37:55.875Z,11.20
2019-05-28T01:40:43.450Z,11.20
2019-05-28T01:43:17.106Z,11.10
2019-05-28T01:45:56.028Z,11.00
2019-05-28T01:48:29.728Z,11.00
2019-05-28T01:51:03.420Z,10.90
2019-05-28T01:58:11.571Z,10.90
2019-05-28T02:01:33.972Z,11.00
2019-05-28T02:04:07.731Z,10.90
2019-05-28T02:06:41.447Z,10.90
2019-05-28T02:09:45.434Z,10.80
2019-05-28T02:12:19.108Z,10.80
2019-05-28T02:14:52.814Z,10.80
2019-05-28T02:18:16.090Z,10.80
2019-05-28T02:20:49.812Z,10.80
2019-05-28T02:23:23.483Z,10.80
2019-05-28T02:26:12.314Z,10.80
2019-05-28T02:28:45.972Z,10.70
2019-05-28T02:31:27.843Z,10.70
2019-05-28T02:34:46.964Z,10.70
2019-05-28T02:37:20.602Z,10.70
2019-05-28T02:39:54.342Z,10.60
2019-05-28T02:42:55.473Z,10.60
2019-05-28T02:45:29.586Z,10.60
2019-05-28T02:48:15.430Z,10.50
2019-05-28T02:51:13.822Z,10.50
2019-05-28T02:53:47.741Z,10.50
2019-05-28T02:56:23.682Z,10.40
2019-05-28T02:59:17.546Z,10.50
2019-05-28T03:01:52.665Z,10.50
2019-05-28T03:04:28.256Z,10.40
2019-05-28T03:07:21.334Z,10.40
2019-05-28T03:09:57.777Z,10.40
2019-05-28T03:12:31.398Z,10.40
2019-05-28T03:18:39.869Z,10.50
2019-05-28T03:24:51.789Z,10.50
2019-05-28T03:27:25.572Z,10.50
2019-05-28T03:30:12.502Z,10.50
2019-05-28T03:32:46.184Z,10.60
2019-05-28T03:35:20.463Z,10.60
2019-05-28T03:38:00.133Z,10.60
2019-05-28T03:43:50.966Z,10.60
2019-05-28T03:46:24.598Z,10.70
2019-05-28T03:48:58.222Z,10.70
2019-05-28T03:52:04.520Z,10.80
2019-05-28T03:54:38.703Z,10.80
2019-05-28T03:57:28.477Z,10.80
2019-05-28T04:00:02.791Z,10.90
2019-05-28T04:02:36.462Z,11.00
2019-05-28T04:08:45.459Z,11.00
2019-05-28T04:11:53.187Z,11.10
2019-05-28T04:14:27.196Z,11.20
2019-05-28T04:17:00.844Z,11.30
2019-05-28T04:19:40.490Z,11.40
2019-05-28T04:22:14.755Z,11.40
2019-05-28T04:24:48.961Z,11.50
2019-05-28T04:27:23.280Z,11.60
2019-05-28T04:29:57.948Z,11.60
2019-05-28T04:32:40.759Z,11.60
2019-05-28T04:35:18.175Z,11.70
2019-05-28T04:37:52.463Z,11.80
2019-05-28T04:40:26.670Z,11.80
2019-05-28T04:43:34.301Z,11.90
2019-05-28T04:46:08.470Z,11.90
2019-05-28T04:48:42.757Z,12.00
2019-05-28T04:51:29.628Z,12.10
2019-05-28T04:54:03.903Z,12.20
2019-05-28T04:56:38.079Z,12.20
2019-05-28T04:59:29.141Z,12.30
2019-05-28T05:02:03.492Z,12.50
2019-05-28T05:04:53.589Z,12.70
2019-05-28T05:07:27.895Z,12.90
2019-05-28T05:10:02.123Z,13.00
2019-05-28T05:12:58.288Z,13.20
2019-05-28T05:15:32.591Z,13.20
2019-05-28T05:18:06.867Z,13.30
2019-05-28T05:20:59.872Z,13.30
2019-05-28T05:23:34.036Z,13.40
2019-05-28T05:26:29.938Z,13.60
2019-05-28T05:29:04.376Z,13.80
2019-05-28T05:31:38.580Z,14.10
2019-05-28T05:34:21.951Z,14.40
2019-05-28T05:36:56.160Z,14.50
2019-05-28T05:39:30.444Z,14.60
2019-05-28T05:42:05.271Z,14.70
2019-05-28T05:44:39.537Z,14.50
2019-05-28T05:47:29.093Z,14.10
2019-05-28T05:50:04.364Z,13.80
2019-05-28T05:52:40.658Z,13.70
2019-05-28T05:55:15.340Z,14.10
2019-05-28T05:57:49.513Z,14.40
2019-05-28T06:00:33.275Z,14.60
2019-05-28T06:03:07.496Z,15.10
2019-05-28T06:05:42.114Z,15.10
2019-05-28T06:08:16.756Z,15.30
2019-05-28T06:10:51.082Z,15.40
2019-05-28T06:13:25.416Z,15.70
2019-05-28T06:16:04.968Z,15.80
2019-05-28T06:18:39.144Z,15.70
2019-05-28T06:21:18.290Z,16.00
2019-05-28T06:23:49.536Z,16.40
2019-05-28T06:26:24.153Z,16.10
2019-05-28T06:29:25.913Z,16.50
2019-05-28T06:32:00.193Z,17.20
2019-05-28T06:34:34.529Z,17.90
2019-05-28T06:37:09.789Z,18.30
2019-05-28T06:39:44.284Z,18.10
2019-05-28T06:42:18.562Z,18.30
2019-05-28T06:44:53.109Z,18.40
2019-05-28T06:47:27.467Z,18.20
2019-05-28T06:50:01.725Z,17.60
2019-05-28T06:52:51.400Z,16.80
2019-05-28T06:55:29.071Z,16.10
2019-05-28T06:58:03.653Z,16.00
2019-05-28T07:00:38.385Z,16.40
2019-05-28T07:03:12.703Z,16.80
2019-05-28T07:06:05.123Z,16.80
2019-05-28T07:08:23.963Z,16.30
2019-05-28T07:10:58.690Z,16.20
2019-05-28T07:13:36.749Z,16.20
2019-05-28T07:16:10.968Z,16.10
2019-05-28T07:18:45.114Z,16.00
2019-05-28T07:21:29.081Z,16.00
2019-05-28T07:24:05.149Z,16.20
2019-05-28T07:26:39.594Z,17.00
2019-05-28T07:29:21.187Z,16.70
2019-05-28T07:31:55.698Z,17.10
2019-05-28T07:34:31.961Z,16.70
2019-05-28T07:37:06.281Z,16.10
2019-05-28T07:40:05.295Z,16.10
2019-05-28T07:42:39.456Z,16.20
2019-05-28T07:45:14.151Z,16.00
2019-05-28T07:48:04.243Z,16.00
2019-05-28T07:50:38.421Z,16.60
2019-05-28T07:53:16.604Z,16.70
2019-05-28T07:55:58.412Z,17.10
2019-05-28T07:58:32.634Z,17.10
2019-05-28T08:01:06.917Z,16.30
2019-05-28T08:03:46.428Z,16.00
2019-05-28T08:06:20.661Z,15.70
2019-05-28T08:08:54.907Z,16.10
2019-05-28T08:11:33.701Z,16.30
2019-05-28T08:14:08.056Z,17.10
2019-05-28T08:16:52.262Z,17.00
2019-05-28T08:19:25.683Z,16.50
2019-05-28T08:22:00.016Z,17.30
2019-05-28T08:24:34.273Z,17.30
2019-05-28T08:27:11.702Z,17.70
2019-05-28T08:29:45.951Z,16.90
2019-05-28T08:32:24.146Z,16.50
2019-05-28T08:35:05.387Z,16.50
2019-05-28T08:37:34.231Z,16.40
2019-05-28T08:40:16.127Z,16.30
2019-05-28T08:42:50.590Z,16.40
2019-05-28T08:45:25.287Z,15.90
2019-05-28T08:48:08.610Z,15.90
2019-05-28T08:50:42.880Z,15.60
2019-05-28T08:53:17.273Z,15.50
2019-05-28T08:55:51.675Z,15.70
2019-05-28T08:58:25.925Z,15.70
2019-05-28T09:01:00.329Z,15.70
2019-05-28T09:03:34.613Z,15.90
2019-05-28T09:06:24.534Z,16.20
2019-05-28T09:08:57.098Z,16.10
2019-05-28T09:11:31.360Z,16.30
2019-05-28T09:14:09.333Z,16.10
2019-05-28T09:16:43.529Z,16.00
2019-05-28T09:19:18.210Z,15.70
2019-05-28T09:21:59.877Z,15.80
2019-05-28T09:24:34.155Z,15.90
2019-05-28T09:27:08.399Z,16.10
2019-05-28T09:29:46.361Z,16.20
2019-05-28T09:32:20.563Z,16.20
2019-05-28T09:34:54.807Z,16.50
2019-05-28T09:37:35.301Z,17.00
2019-05-28T09:40:10.789Z,16.70
2019-05-28T09:42:45.407Z,16.50
2019-05-28T09:45:27.339Z,16.70
2019-05-28T09:48:01.599Z,17.10
2019-05-28T09:50:38.088Z,17.10
2019-05-28T09:53:12.359Z,16.90
2019-05-28T09:55:46.633Z,17.10
2019-05-28T09:58:20.879Z,17.50
2019-05-28T10:01:04.888Z,17.80
2019-05-28T10:03:39.159Z,17.50
2019-05-28T10:06:17.451Z,16.80
2019-05-28T10:08:53.881Z,16.80
2019-05-28T10:11:28.113Z,16.70
2019-05-28T10:14:06.732Z,16.80
2019-05-28T10:16:41.001Z,16.80
2019-05-28T10:19:15.743Z,17.00
2019-05-28T10:21:50.273Z,17.20
2019-05-28T10:24:24.563Z,17.70
2019-05-28T10:27:10.939Z,18.10
2019-05-28T10:29:45.119Z,17.70
2019-05-28T10:32:19.664Z,17.60
2019-05-28T10:35:03.802Z,17.30
2019-05-28T10:37:33.300Z,17.10
2019-05-28T10:40:09.119Z,17.20
2019-05-28T10:42:47.484Z,17.60
2019-05-28T10:45:22.727Z,17.10
2019-05-28T10:47:57.250Z,17.50
2019-05-28T10:50:36.006Z,17.80
2019-05-28T10:53:10.263Z,17.40
2019-05-28T10:55:44.558Z,17.80
2019-05-28T10:58:19.214Z,17.80
2019-05-28T11:00:53.468Z,17.50
2019-05-28T11:03:27.787Z,17.40
2019-05-28T11:06:16.003Z,17.80
2019-05-28T11:08:50.542Z,18.00
2019-05-28T11:11:27.175Z,17.90
2019-05-28T11:14:01.397Z,17.90
2019-05-28T11:16:35.679Z,17.90
2019-05-28T11:19:17.225Z,17.70
2019-05-28T11:21:51.491Z,17.70
2019-05-28T11:24:25.790Z,17.70
2019-05-28T11:27:04.032Z,17.50
2019-05-28T11:29:38.259Z,17.70
2019-05-28T11:32:12.430Z,17.90
2019-05-28T11:34:54.317Z,17.50
2019-05-28T11:37:28.503Z,17.20
2019-05-28T11:40:03.038Z,17.20
2019-05-28T11:42:43.619Z,17.50
2019-05-28T11:45:18.748Z,17.60
2019-05-28T11:47:53.181Z,17.50
2019-05-28T11:50:33.789Z,17.60
2019-05-28T11:53:08.117Z,17.90
2019-05-28T11:55:42.434Z,17.70
2019-05-28T11:58:19.172Z,17.50
2019-05-28T12:00:57.539Z,17.70
2019-05-28T12:03:31.786Z,17.70
2019-05-28T12:06:06.137Z,17.40
2019-05-28T12:08:49.963Z,17.50
2019-05-28T12:11:24.239Z,17.00
2019-05-28T12:13:58.537Z,16.80
2019-05-28T12:16:36.274Z,17.00
2019-05-28T12:19:10.469Z,17.10
2019-05-28T12:21:44.644Z,17.10
2019-05-28T12:24:20.924Z,17.40
2019-05-28T12:26:55.113Z,17.10
2019-05-28T12:29:29.414Z,17.20
2019-05-28T12:32:16.010Z,17.10
2019-05-28T12:34:50.278Z,17.10
2019-05-28T12:37:24.601Z,16.70
2019-05-28T12:40:03.047Z,16.80
2019-05-28T12:42:37.910Z,17.20
2019-05-28T12:45:14.014Z,17.10
2019-05-28T12:48:07.406Z,16.70
2019-05-28T12:50:26.318Z,16.90
2019-05-28T12:53:00.675Z,16.60
2019-05-28T12:55:38.811Z,16.70
2019-05-28T12:58:16.410Z,16.70
2019-05-28T13:00:54.460Z,17.00
2019-05-28T13:03:28.713Z,16.80
2019-05-28T13:06:03.066Z,16.80
2019-05-28T13:08:43.652Z,16.60
2019-05-28T13:11:17.846Z,16.60
2019-05-28T13:13:52.128Z,16.70
2019-05-28T13:16:31.247Z,16.40
2019-05-28T13:19:05.598Z,16.40
2019-05-28T13:21:39.882Z,16.20
2019-05-28T13:24:16.487Z,16.40
2019-05-28T13:26:50.795Z,16.40
2019-05-28T13:29:25.105Z,16.10
2019-05-28T13:32:11.771Z,16.40
2019-05-28T13:34:46.085Z,16.30
2019-05-28T13:37:20.316Z,16.40
2019-05-28T13:39:57.654Z,16.50
2019-05-28T13:42:31.854Z,16.30
2019-05-28T13:45:07.263Z,16.20
2019-05-28T13:47:50.039Z,16.30
2019-05-28T13:50:24.595Z,16.50
2019-05-28T13:52:59.176Z,16.50
2019-05-28T13:55:37.064Z,16.20
2019-05-28T13:58:11.366Z,16.10
2019-05-28T14:00:45.531Z,15.90
2019-05-28T14:03:19.739Z,15.80
2019-05-28T14:05:56.716Z,15.70
2019-05-28T14:08:45.969Z,15.70
2019-05-28T14:11:06.839Z,15.80
2019-05-28T14:13:52.675Z,15.50
2019-05-28T14:16:26.863Z,15.70
2019-05-28T14:19:01.103Z,15.40
2019-05-28T14:21:41.856Z,15.40
2019-05-28T14:24:16.126Z,15.10
2019-05-28T14:26:50.312Z,15.10
2019-05-28T14:29:27.735Z,15.20
2019-05-28T14:32:02.013Z,15.10
2019-05-28T14:34:36.212Z,15.20
2019-05-28T14:37:20.485Z,15.10
2019-05-28T14:39:54.759Z,15.10
2019-05-28T14:42:28.974Z,15.10
2019-05-28T14:45:11.323Z,15.00
2019-05-28T14:47:45.581Z,15.00
2019-05-28T14:50:20.590Z,15.10
2019-05-28T14:52:59.505Z,15.30
2019-05-28T14:55:33.870Z,15.20
2019-05-28T14:58:08.112Z,14.90
2019-05-28T15:00:59.190Z,14.80
2019-05-28T15:03:59.102Z,14.90
2019-05-28T15:06:33.675Z,14.90
2019-05-28T15:09:20.287Z,14.90
2019-05-28T15:11:50.823Z,14.80
2019-05-28T15:14:25.078Z,14.70
2019-05-28T15:16:59.262Z,14.60
2019-05-28T15:20:00.060Z,14.50
2019-05-28T15:22:34.229Z,14.40
2019-05-28T15:25:09.172Z,14.50
2019-05-28T15:28:01.525Z,14.40
2019-05-28T15:30:35.756Z,14.60
2019-05-28T15:36:27.431Z,14.50
2019-05-28T15:39:01.589Z,14.70
2019-05-28T15:41:35.928Z,14.80
2019-05-28T15:44:31.589Z,14.80
2019-05-28T15:47:06.125Z,14.90
2019-05-28T15:49:40.297Z,14.90
2019-05-28T15:52:30.883Z,14.80
2019-05-28T15:55:08.579Z,14.70
2019-05-28T15:57:42.825Z,14.70
2019-05-28T16:00:33.078Z,14.80
2019-05-28T16:03:07.302Z,14.90
2019-05-28T16:05:41.549Z,14.70
2019-05-28T16:08:34.454Z,14.70
2019-05-28T16:11:08.788Z,14.80
2019-05-28T16:13:43.205Z,14.80
2019-05-28T16:16:25.292Z,14.80
2019-05-28T16:18:59.582Z,14.70
2019-05-28T16:21:33.835Z,14.60
2019-05-28T16:30:19.180Z,14.40
2019-05-28T16:32:53.376Z,14.40
2019-05-28T16:35:27.535Z,14.30
2019-05-28T16:38:08.161Z,14.30
2019-05-28T16:40:42.328Z,14.20
2019-05-28T16:43:16.667Z,14.20
2019-05-28T16:45:54.217Z,14.10
2019-05-28T16:48:28.493Z,14.10
2019-05-28T16:51:05.925Z,14.00
2019-05-28T16:53:40.127Z,14.00
2019-05-28T16:56:20.842Z,14.00
2019-05-28T16:58:55.012Z,14.00
2019-05-28T17:01:35.571Z,14.10
2019-05-28T17:04:09.794Z,14.00
2019-05-28T17:06:43.952Z,14.00
2019-05-28T17:09:35.658Z,13.90
2019-05-28T17:12:09.854Z,13.90
2019-05-28T17:14:48.429Z,13.80
2019-05-28T17:17:22.651Z,13.90
2019-05-28T17:20:11.807Z,13.80
2019-05-28T17:22:46.050Z,13.80
2019-05-28T17:25:20.349Z,13.80
2019-05-28T17:28:00.806Z,13.70
2019-05-28T17:30:36.996Z,13.80
2019-05-28T17:33:11.242Z,13.70
2019-05-28T17:35:45.416Z,13.60
2019-05-28T17:38:32.252Z,13.60
2019-05-28T17:41:06.539Z,13.60
2019-05-28T17:43:40.886Z,13.60
2019-05-28T17:46:15.480Z,13.50
2019-05-28T17:48:49.640Z,13.50
2019-05-28T17:51:23.853Z,13.40
2019-05-28T17:53:58.385Z,13.40
2019-05-28T17:56:32.655Z,13.40
2019-05-28T17:59:36.754Z,13.40
2019-05-28T18:02:10.999Z,13.30
2019-05-28T18:05:00.314Z,13.30
2019-05-28T18:07:34.778Z,13.30
2019-05-28T18:10:23.625Z,13.20
2019-05-28T18:12:57.817Z,13.20
2019-05-28T18:15:37.773Z,13.10
2019-05-28T18:18:11.982Z,13.10
2019-05-28T18:20:48.525Z,13.00
2019-05-28T18:23:22.719Z,12.90
2019-05-28T18:26:11.724Z,12.90
2019-05-28T18:28:45.989Z,12.90
2019-05-28T18:31:20.315Z,12.80
2019-05-28T18:34:08.282Z,12.80
2019-05-28T18:36:42.631Z,12.70
2019-05-28T18:39:16.797Z,12.60
2019-05-28T18:42:08.455Z,12.60
2019-05-28T18:44:42.685Z,12.50
2019-05-28T18:47:34.086Z,12.40
2019-05-28T18:50:10.410Z,12.40
2019-05-28T18:52:44.644Z,12.30
2019-05-28T18:55:23.965Z,12.30
2019-05-28T18:57:58.135Z,12.20
2019-05-28T19:00:32.508Z,12.20
2019-05-28T19:03:09.709Z,12.10
2019-05-28T19:05:43.905Z,12.00
2019-05-28T19:08:18.214Z,11.90
2019-05-28T19:10:54.702Z,11.80
2019-05-28T19:13:29.031Z,11.80
2019-05-28T19:16:03.319Z,11.70
2019-05-28T19:18:55.392Z,11.60
2019-05-28T19:21:29.533Z,11.50
2019-05-28T19:24:03.804Z,11.40
2019-05-28T19:26:40.294Z,11.30
2019-05-28T19:29:14.642Z,11.30
2019-05-28T19:31:53.119Z,11.20
2019-05-28T19:34:27.674Z,11.10
2019-05-28T19:37:03.788Z,11.10
2019-05-28T19:39:42.328Z,11.00
2019-05-28T19:42:16.599Z,11.00
2019-05-28T19:44:50.796Z,11.00
2019-05-28T19:47:29.566Z,10.90
2019-05-28T19:50:01.918Z,10.90
2019-05-28T19:52:36.318Z,10.80
2019-05-28T19:55:11.535Z,10.80
2019-05-28T19:57:45.760Z,10.70
2019-05-28T20:00:19.821Z,10.70
2019-05-28T20:02:57.523Z,10.60
2019-05-28T20:05:31.408Z,10.60
2019-05-28T20:08:06.564Z,10.60
2019-05-28T20:10:40.518Z,10.60
2019-05-28T20:13:14.079Z,10.60
2019-05-28T20:16:10.922Z,10.50
2019-05-28T20:18:45.287Z,10.50
2019-05-28T20:21:18.990Z,10.50
2019-05-28T20:24:00.426Z,10.40
2019-05-28T20:26:34.092Z,10.40
2019-05-28T20:29:08.929Z,10.40
2019-05-28T20:31:44.376Z,10.30
2019-05-28T20:34:25.507Z,10.30
2019-05-28T20:36:59.431Z,10.30
2019-05-28T20:39:33.280Z,10.30
2019-05-28T20:42:26.170Z,10.30
2019-05-28T20:44:48.503Z,10.30
2019-05-28T20:47:22.172Z,10.30
2019-05-28T20:50:09.438Z,10.30
2019-05-28T20:52:43.121Z,10.30
2019-05-28T20:55:17.283Z,10.30
2019-05-28T20:57:55.381Z,10.30
2019-05-28T21:00:29.183Z,10.30
2019-05-28T21:03:06.651Z,10.30
2019-05-28T21:05:40.872Z,10.20
2019-05-28T21:08:17.825Z,10.20
2019-05-28T21:10:52.521Z,10.20
2019-05-28T21:13:26.465Z,10.20
2019-05-28T21:16:10.027Z,10.20
2019-05-28T21:18:43.719Z,10.20
2019-05-28T21:21:21.375Z,10.20
2019-05-28T21:23:55.900Z,10.10
2019-05-28T21:26:29.645Z,10.10
2019-05-28T21:29:11.426Z,10.10
2019-05-28T21:31:45.092Z,10.20
2019-05-28T21:34:18.793Z,10.20
2019-05-28T21:36:59.261Z,10.10
2019-05-28T21:39:32.955Z,10.10
2019-05-28T21:42:06.627Z,10.10
2019-05-28T21:44:45.246Z,10.10
2019-05-28T21:47:19.055Z,10.10
2019-05-28T21:49:52.769Z,10.10
2019-05-28T21:52:26.831Z,10.10
2019-05-28T21:55:01.928Z,10.10
2019-05-28T21:57:35.975Z,10.00
2019-05-28T22:00:46.439Z,10.10
2019-05-28T22:03:27.329Z,10.10
2019-05-28T22:06:01.395Z,10.10
2019-05-28T22:08:35.212Z,10.10
2019-05-28T22:11:17.311Z,10.10
2019-05-28T22:13:50.963Z,10.10
2019-05-28T22:16:24.567Z,10.20
2019-05-28T22:19:39.012Z,10.20
2019-05-28T22:22:12.679Z,10.10
2019-05-28T22:24:46.296Z,10.00
2019-05-28T22:27:39.499Z,10.00
2019-05-28T22:30:13.459Z,10.00
2019-05-28T22:32:47.161Z,10.00
2019-05-28T22:35:33.046Z,10.00
2019-05-28T22:38:07.553Z,10.00
2019-05-28T22:40:41.387Z,10.10
2019-05-28T22:43:31.152Z,10.10
2019-05-28T22:45:54.699Z,10.10
2019-05-28T22:48:28.411Z,10.10
2019-05-28T22:51:09.383Z,10.00
2019-05-28T22:53:43.019Z,10.00
2019-05-28T22:56:16.659Z,10.10
2019-05-28T22:59:09.960Z,10.10
2019-05-28T23:01:43.625Z,10.10
2019-05-28T23:04:17.283Z,10.00
2019-05-28T23:06:59.173Z,10.00
2019-05-28T23:09:32.891Z,10.00
2019-05-28T23:12:07.983Z,9.90
2019-05-28T23:15:17.815Z,10.00
2019-05-28T23:17:51.527Z,10.00
2019-05-28T23:20:25.226Z,9.90
2019-05-28T23:23:01.107Z,10.00
2019-05-28T23:25:34.754Z,9.90
2019-05-28T23:28:09.688Z,9.90
2019-05-28T23:30:43.570Z,9.90
2019-05-28T23:33:21.863Z,9.90
2019-05-28T23:35:55.898Z,9.90
2019-05-28T23:38:29.686Z,10.00
2019-05-28T23:41:07.261Z,10.00
2019-05-28T23:43:40.932Z,10.00
2019-05-28T23:46:14.529Z,10.10
2019-05-28T23:48:53.666Z,10.10
2019-05-28T23:51:27.295Z,10.10
2019-05-28T23:54:01.660Z,10.10
2019-05-28T23:56:35.287Z,10.20
2019-05-28T23:59:09.755Z,10.10
